Station: Camooweal

  Atmospheric Gas Attenuation - ITU Rec 676-11   --------------- db/100km ---------------
Date Time Temp RH % AH g/m3 Dew Point Wind Direction Speed kph Gust kph Barometer mB Rainfall Since 9am 24GHz 47GHz 76GHz 122GHz 134GHz 241GHz
27 02:00 20 59 10.2 11.8 7 9 1005 0 22.7 26.3 42.5 111.9 110.2 380.5
27 01:50 20.2 58 10.14 11.7 7 7 1005.3 0 22.6 26.2 42.2 111.1 109.1 377.0
27 01:40 20.6 57 10.2 11.8 7 7 1005.3 0 22.7 26.2 42.2 111.1 109.3 377.7
27 01:30 20.9 55 10.02 11.5 6 7 1005.2 0 22.3 25.8 41.4 108.9 106.6 368.3
27 01:20 21.2 52 9.64 11 7 7 1005.4 0 21.4 25.1 39.8 104.7 101.5 350.5
27 01:10 21.6 50 9.48 10.7 7 7 1005.4 0 21.1 24.8 39.0 102.5 99.1 341.9
27 01:00 21.7 49 9.35 10.5 7 7 1005.4 0 20.8 24.6 38.5 101.1 97.4 336.0
27 00:50 21.9 47 9.07 10.1 6 7 1005.5 0 20.2 24.1 37.4 98.2 93.8 323.4
27 00:40 22 45 8.73 9.5 7 7 1005.6 0 19.5 23.6 36.1 94.8 89.6 308.9
27 00:30 22 46 8.93 9.9 6 7 1005.6 0 19.9 23.9 36.8 96.7 92.0 317.2
27 00:20 22.2 45 8.83 9.7 6 6 1005.7 0 19.7 23.7 36.4 95.5 90.6 312.3
27 00:10 22.6 45 9.04 10.1 4 6 1005.9 0 20.1 23.9 37.0 97.1 92.6 319.4
27 00:00 22.4 45 8.94 9.9 4 6 1005.9 0 19.9 23.8 36.7 96.3 91.7 316.1
26 23:50 22.8 46 9.35 10.6 6 6 1006.1 0 20.7 24.3 38.0 99.8 96.1 331.6
26 23:40 22.7 50 10.1 12 6 6 1006 0 22.3 25.4 40.8 107.3 105.3 363.8
26 23:30 22.9 53 10.83 12.8 7 9 1005.9 0 23.9 26.5 43.4 114.4 114.0 394.5
26 23:20 22.8 51 10.36 12.1 7 9 1006.1 0 22.9 25.8 41.7 109.8 108.4 374.5
26 23:10 23 50 10.28 12 7 7 1006 0 22.7 25.6 41.3 108.7 107.1 370.1
26 23:00 23.3 51 10.66 12.6 7 9 1005.8 0 23.5 26.1 42.6 112.1 111.3 385.1
26 22:50 23.5 48 10.15 11.9 7 7 1005.9 0 22.4 25.3 40.6 106.7 104.8 362.3
26 22:40 23.5 47 9.94 11.5 7 9 1005.8 0 22.0 25.0 39.8 104.7 102.3 353.3
26 22:30 23.7 46 9.84 11.4 7 7 1005.6 0 21.7 24.7 39.3 103.4 100.8 348.2
26 22:20 23.9 47 10.17 11.9 7 7 1005.7 0 22.4 25.2 40.4 106.4 104.5 361.2
26 22:10 24.2 46 10.12 11.9 9 9 1005.7 0 22.3 25.0 40.1 105.5 103.5 357.8
26 22:00 24.5 44 9.85 11.5 6 7 1005.6 0 21.7 24.5 39.0 102.5 99.9 345.2
26 21:50 24.8 44 10.02 11.7 6 7 1005.5 0 22.1 24.7 39.4 103.7 101.5 350.9
26 21:40 24.8 43 9.79 11.4 6 7 1005.5 0 21.6 24.4 38.6 101.5 98.8 341.4
26 21:30 25.2 44 10.24 12.1 6 7 1005.3 0 22.5 24.9 40.0 105.3 103.6 358.2
26 21:20 25.4 43 10.12 11.9 6 7 1005.2 0 22.2 24.7 39.5 103.9 101.9 352.4
26 21:10 25.8 42 10.11 11.9 6 7 1005.2 0 22.2 24.6 39.3 103.3 101.3 350.2
26 21:00 26.1 42 10.28 12.2 7 9 1004.9 0 22.5 24.7 39.7 104.5 102.9 355.8
26 20:50 26.2 42 10.34 12.3 7 7 1005 0 22.6 24.8 39.9 104.9 103.5 357.9
26 20:40 26.6 39 9.82 11.5 7 7 1004.8 0 21.5 23.9 37.8 99.5 96.9 334.9
26 20:30 26.6 37 9.31 10.7 7 9 1004.6 0 20.5 23.2 36.1 94.8 91.1 314.4
26 20:20 27 36 9.27 10.7 7 7 1004.5 0 20.4 23.0 35.7 93.9 90.2 311.3
26 20:10 27.4 34 8.95 10.2 7 7 1004.4 0 19.7 22.5 34.5 90.6 86.1 297.3
26 20:00 27.9 32 8.66 9.7 9 11 1004.3 0 19.1 22.0 33.3 87.4 82.4 284.3
26 19:50 28.6 29 8.15 8.8 11 11 1004.2 0 18.0 21.1 31.4 82.3 76.3 262.8
26 19:40 29.2 28 8.13 8.8 9 9 1004.1 0 17.9 21.0 31.1 81.5 75.5 260.1
26 19:30 29.7 27 8.06 8.7 7 9 1003.9 0 17.8 20.8 30.7 80.4 74.3 256.0
26 19:20 30.4 26 8.06 8.7 9 9 1003.9 0 17.7 20.6 30.4 79.7 73.7 253.8
26 19:10 30.9 25 7.96 8.6 7 9 1003.8 0 17.5 20.4 29.9 78.4 72.2 248.7
26 19:00 31.6 23 7.6 8 9 11 1003.6 0 16.7 19.8 28.6 74.8 68.0 233.9
26 18:50 32.4 22 7.59 8 7 9 1003.5 0 16.7 19.6 28.3 74.0 67.2 231.3
26 18:40 32.9 20 7.08 7 9 11 1003.5 0 15.6 18.9 26.6 69.6 61.8 212.5
26 18:30 33.6 17 6.25 5.2 11 15 1003.4 0 13.9 17.8 24.0 62.7 53.5 183.2
26 18:20 34.1 17 6.42 5.6 11 13 1003.3 0 14.2 17.9 24.3 63.6 54.7 187.7
26 18:10 34.3 17 6.48 5.8 13 17 1003.2 0 14.3 17.9 24.5 63.9 55.2 189.2
26 18:00 34.7 16 6.23 5.2 15 20 1003.2 0 13.8 17.5 23.6 61.7 52.6 180.2
26 17:50 34.6 14 5.42 3.2 17 20 1003.2 0 12.2 16.6 21.5 55.8 45.4 154.7
26 17:40 34.8 16 6.26 5.3 17 20 1003.2 0 13.9 17.6 23.7 61.9 52.8 181.0
26 17:30 34.8 14 5.48 3.4 20 26 1003.2 0 12.3 16.7 21.6 56.2 45.8 156.2
26 17:20 35.1 14 5.57 3.6 17 20 1003.2 0 12.5 16.7 21.7 56.6 46.4 158.5
26 17:10 34.9 13 5.12 2.4 11 13 1003.1 0 11.5 16.3 20.6 53.5 42.6 144.8
26 17:00 35.3 14 5.62 3.8 20 30 1003 0 12.6 16.7 21.8 56.8 46.8 159.6
26 16:50 35.4 14 5.65 3.8 19 30 1003 0 12.6 16.8 21.9 57.0 47.0 160.4
26 16:40 35.3 14 5.62 3.8 26 28 1003.1 0 12.6 16.7 21.8 56.8 46.8 159.6
26 16:30 35.6 14 5.71 4 19 28 1003.1 0 12.7 16.8 22.0 57.3 47.4 161.9
26 16:20 35.5 13 5.28 2.9 22 24 1003.1 0 11.9 16.3 20.9 54.3 43.7 148.7
26 16:10 35.4 13 5.25 2.8 24 26 1003.1 0 11.8 16.3 20.8 54.1 43.4 148.0
26 16:00 35.9 14 5.8 4.2 19 32 1003.2 0 12.9 16.8 22.2 57.7 48.0 164.2
26 15:50 35.5 13 5.28 2.9 17 19 1003.3 0 11.9 16.3 20.9 54.3 43.7 148.7
26 15:40 35.7 14 5.74 4.1 20 24 1003.4 0 12.8 16.8 22.1 57.4 47.6 162.7
26 15:30 35.9 14 5.8 4.2 15 24 1003.4 0 12.9 16.9 22.2 57.7 48.0 164.2
26 15:20 35.6 14 5.71 4 15 20 1003.4 0 12.7 16.8 22.0 57.3 47.4 161.9
26 15:10 35 12 4.75 1.4 15 17 1003.5 0 10.8 15.9 19.6 50.9 39.3 133.3
26 15:00 35.1 13 5.17 2.6 15 24 1003.6 0 11.6 16.3 20.7 53.8 42.9 146.1
26 14:50 35 13 5.14 2.5 7 9 1003.7 0 11.6 16.3 20.6 53.6 42.7 145.3
26 14:40 35 14 5.54 3.5 11 13 1003.9 0 12.4 16.7 21.7 56.5 46.2 157.8
26 14:30 35.1 13 5.17 2.6 20 30 1004 0 11.6 16.3 20.7 53.8 42.9 146.1
26 14:20 34.9 13 5.12 2.4 19 22 1004.1 0 11.5 16.3 20.6 53.6 42.6 144.9
26 14:10 34.8 13 5.09 2.3 20 24 1004.2 0 11.5 16.3 20.6 53.4 42.4 144.2
26 14:00 35 14 5.54 3.5 20 28 1004.3 0 12.4 16.7 21.7 56.5 46.3 157.8
26 13:50 34.6 13 5.04 2.2 17 22 1004.5 0 11.4 16.3 20.5 53.2 42.1 143.0
26 13:40 34.3 15 5.72 4 20 24 1004.6 0 12.8 17.1 22.4 58.3 48.3 164.9
26 13:30 34.4 14 5.37 3.1 22 33 1004.8 0 12.1 16.7 21.4 55.7 45.1 153.7
26 13:20 34.5 15 5.78 4.1 17 20 1005.2 0 12.9 17.1 22.5 58.7 48.7 166.5
26 13:10 33.9 14 5.23 2.7 20 24 1005.3 0 11.8 16.6 21.2 55.1 44.1 150.2
26 13:00 34.1 14 5.28 2.8 24 35 1005.3 0 11.9 16.6 21.3 55.3 44.5 151.4
26 12:50 34.3 14 5.34 3 20 32 1005.5 0 12.0 16.7 21.4 55.6 44.9 153.0
26 12:40 33.6 15 5.51 3.4 19 26 1005.7 0 12.4 17.0 22.0 57.3 46.8 159.7
26 12:30 33.6 14 5.15 2.4 26 35 1005.6 0 11.6 16.6 21.0 54.7 43.6 148.2
26 12:20 33.1 14 5.01 2 30 33 1005.8 0 11.4 16.5 20.8 54.0 42.6 144.7
26 12:10 32.6 14 4.88 1.7 28 30 1006 0 11.1 16.5 20.6 53.4 41.7 141.4
26 12:00 33.1 15 5.37 3 24 37 1005.8 0 12.1 16.9 21.8 56.6 45.8 156.1
26 11:50 32.6 14 4.88 1.7 24 28 1006.1 0 11.1 16.5 20.6 53.4 41.7 141.5
26 11:40 33.1 16 5.73 3.9 20 26 1006.2 0 12.8 17.3 22.8 59.3 49.1 167.7
26 11:30 32.1 15 5.09 2.2 26 35 1006.2 0 11.6 16.8 21.3 55.2 43.8 149.0
26 11:20 31.9 15 5.04 2.1 26 32 1006.4 0 11.5 16.8 21.2 55.0 43.5 147.8
26 11:10 32 16 5.4 3.1 26 32 1006.5 0 12.2 17.2 22.2 57.6 46.7 159.2
26 11:00 31.4 15 4.91 1.7 26 35 1006.6 0 11.2 16.7 21.0 54.4 42.6 144.5
26 10:50 31 16 5.12 2.3 28 32 1006.8 0 11.7 17.0 21.6 56.2 44.7 151.9
26 10:40 30.4 16 4.96 1.8 22 26 1007 0 11.4 17.0 21.3 55.4 43.5 147.8
26 10:30 30.3 17 5.24 2.5 26 35 1007 0 11.9 17.3 22.2 57.6 46.2 157.2
26 10:20 29.8 18 5.4 2.9 24 30 1007 0 12.3 17.6 22.7 59.2 48.0 163.4
26 10:10 29.5 17 5.02 1.9 30 33 1007 0 11.5 17.2 21.7 56.5 44.6 151.3
26 10:00 29.2 18 5.23 2.5 22 35 1007 0 11.9 17.5 22.4 58.3 46.7 158.8
26 09:50 28.2 17 4.67 0.9 28 33 1007.1 0 10.8 17.0 21.1 54.7 42.0 142.0
26 09:40 27.8 17 4.57 0.5 32 33 1007.1 0 10.6 17.0 20.9 54.2 41.2 139.4
26 09:30 27.9 18 4.87 1.4 26 39 1007.1 0 11.2 17.3 21.7 56.4 44.0 149.2

Last Refresh: 27-Feb-2021 02:41:19

Most of the information presented on this site is sourced from the Bureau of Meteorology.  Copyright in all material sourced from the Bureau of Meteorology resides with the Commonwealth of Australia.